createdAt,value
2022-10-05T00:04:24.188Z,3.80
2022-10-05T00:09:30.308Z,3.80
2022-10-05T00:14:36.426Z,3.37
2022-10-05T00:19:39.938Z,3.10
2022-10-05T00:24:43.625Z,3.23
2022-10-05T00:29:47.864Z,3.63
2022-10-05T00:34:51.074Z,3.20
2022-10-05T00:39:53.808Z,2.90
2022-10-05T00:45:06.698Z,3.30
2022-10-05T00:50:34.104Z,2.63
2022-10-05T00:56:12.634Z,2.80
2022-10-05T01:01:17.079Z,2.70
2022-10-05T01:06:38.230Z,2.63
2022-10-05T01:12:07.665Z,2.70
2022-10-05T01:17:17.257Z,2.53
2022-10-05T01:22:30.230Z,2.40
2022-10-05T01:27:57.742Z,2.90
2022-10-05T01:33:18.367Z,3.03
2022-10-05T01:38:47.222Z,2.33
2022-10-05T01:44:34.345Z,2.60
2022-10-05T01:49:42.415Z,2.27
2022-10-05T01:55:04.019Z,2.60
2022-10-05T02:00:18.647Z,2.83
2022-10-05T02:05:27.973Z,2.50
2022-10-05T02:11:09.582Z,2.10
2022-10-05T02:16:44.227Z,2.53
2022-10-05T02:21:54.974Z,2.40
2022-10-05T02:26:59.871Z,2.30
2022-10-05T02:32:32.624Z,2.20
2022-10-05T02:38:03.144Z,2.30
2022-10-05T02:43:12.272Z,2.27
2022-10-05T02:48:43.293Z,2.40
2022-10-05T02:54:24.349Z,2.43
2022-10-05T02:59:46.091Z,2.57
2022-10-05T03:05:12.798Z,2.33
2022-10-05T03:10:46.073Z,2.80
2022-10-05T03:15:55.358Z,2.50
2022-10-05T03:21:37.689Z,2.50
2022-10-05T03:26:49.580Z,2.60
2022-10-05T03:32:16.621Z,2.53
2022-10-05T03:37:45.352Z,2.43
2022-10-05T03:43:23.688Z,2.70
2022-10-05T03:48:41.478Z,2.40
2022-10-05T03:53:57.491Z,2.47
2022-10-05T03:59:32.111Z,2.53
2022-10-05T04:04:42.786Z,2.73
2022-10-05T04:09:50.334Z,2.70
2022-10-05T04:15:29.091Z,2.50
2022-10-05T04:20:43.026Z,2.50
2022-10-05T04:25:57.844Z,2.77
2022-10-05T04:31:04.448Z,2.70
2022-10-05T04:36:23.026Z,2.47
2022-10-05T04:41:57.413Z,2.80
2022-10-05T04:47:14.485Z,2.63
2022-10-05T04:52:43.638Z,2.80
2022-10-05T04:57:50.142Z,2.40
2022-10-05T05:02:53.239Z,2.60
2022-10-05T05:08:26.762Z,2.37
2022-10-05T05:13:57.454Z,2.77
2022-10-05T05:19:24.905Z,3.17
2022-10-05T05:24:51.592Z,2.80
2022-10-05T05:30:07.602Z,2.70
2022-10-05T05:35:32.033Z,3.17
2022-10-05T05:40:42.288Z,3.50
2022-10-05T05:45:59.969Z,3.00
2022-10-05T05:51:38.844Z,3.80
2022-10-05T05:57:08.187Z,3.47
2022-10-05T06:02:19.963Z,3.63
2022-10-05T06:07:31.012Z,3.70
2022-10-05T06:12:43.674Z,3.77
2022-10-05T06:17:54.775Z,3.93
2022-10-05T06:23:05.922Z,3.40
2022-10-05T06:28:13.493Z,3.47
2022-10-05T06:33:39.615Z,4.77
2022-10-05T06:38:51.376Z,4.03
2022-10-05T06:44:14.317Z,4.07
2022-10-05T06:49:21.811Z,3.97
2022-10-05T06:54:47.555Z,4.60
2022-10-05T07:00:44.377Z,4.57
2022-10-05T07:06:14.472Z,5.23
2022-10-05T07:11:38.753Z,5.70
2022-10-05T07:17:03.779Z,5.77
2022-10-05T07:22:44.472Z,5.13
2022-10-05T07:27:58.270Z,5.77
2022-10-05T07:33:22.136Z,4.83
2022-10-05T07:38:53.969Z,4.50
2022-10-05T07:44:05.009Z,4.27
2022-10-05T07:49:17.941Z,4.63
2022-10-05T07:54:53.249Z,4.40
2022-10-05T08:00:05.277Z,4.37
2022-10-05T08:05:27.384Z,4.40
2022-10-05T08:10:38.894Z,4.07
2022-10-05T08:15:44.961Z,4.07
2022-10-05T08:20:49.387Z,3.70
2022-10-05T08:25:54.892Z,3.70
2022-10-05T08:31:09.254Z,3.30
2022-10-05T08:36:14.809Z,2.90
2022-10-05T08:41:32.541Z,2.87
2022-10-05T08:47:06.834Z,2.80
2022-10-05T08:52:24.549Z,2.77
2022-10-05T08:57:53.592Z,2.60
2022-10-05T09:03:05.193Z,2.17
2022-10-05T09:08:31.120Z,2.30
2022-10-05T09:13:46.414Z,2.40
2022-10-05T09:18:52.265Z,2.50
2022-10-05T09:24:28.701Z,2.73
2022-10-05T09:29:52.985Z,2.70
2022-10-05T09:35:10.401Z,2.67
2022-10-05T09:40:41.877Z,2.30
2022-10-05T09:46:00.006Z,2.73
2022-10-05T09:54:19.848Z,2.40
2022-10-05T10:00:00.021Z,2.30
2022-10-05T10:05:35.482Z,2.27
2022-10-05T10:11:01.648Z,2.60
2022-10-05T10:16:10.762Z,2.77
2022-10-05T10:21:50.765Z,2.47
2022-10-05T10:27:10.951Z,2.60
2022-10-05T10:32:54.165Z,2.60
2022-10-05T10:38:23.830Z,2.80
2022-10-05T10:43:41.152Z,2.97
2022-10-05T10:48:54.801Z,2.90
2022-10-05T10:54:21.894Z,2.80
2022-10-05T11:00:00.953Z,2.70
2022-10-05T11:05:23.455Z,2.90
2022-10-05T11:10:46.475Z,2.70
2022-10-05T11:21:21.851Z,2.00
2022-10-05T11:26:33.382Z,2.40
2022-10-05T11:31:48.661Z,2.43
2022-10-05T11:37:19.339Z,2.60
2022-10-05T11:42:52.059Z,2.67
2022-10-05T11:48:08.674Z,2.80
2022-10-05T11:53:23.342Z,2.63
2022-10-05T11:58:54.044Z,2.93
2022-10-05T12:04:09.185Z,2.77
2022-10-05T12:09:17.953Z,3.00
2022-10-05T12:14:47.010Z,2.80
2022-10-05T12:19:56.632Z,3.30
2022-10-05T12:25:02.230Z,3.20
2022-10-05T12:30:32.186Z,3.17
2022-10-05T12:36:00.258Z,2.90
2022-10-05T12:41:40.545Z,3.10
2022-10-05T12:47:04.242Z,2.97
2022-10-05T12:52:13.880Z,2.80
2022-10-05T12:57:23.906Z,3.20
2022-10-05T13:02:51.015Z,3.07
2022-10-05T13:08:15.562Z,2.90
2022-10-05T13:13:26.867Z,3.00
2022-10-05T13:18:54.769Z,3.00
2022-10-05T13:24:00.207Z,3.13
2022-10-05T13:29:29.257Z,2.80
2022-10-05T13:34:31.970Z,3.10
2022-10-05T13:39:55.368Z,3.17
2022-10-05T13:45:03.475Z,2.77
2022-10-05T13:50:21.443Z,2.90
2022-10-05T13:55:42.201Z,2.83
2022-10-05T14:00:57.939Z,2.37
2022-10-05T14:06:03.753Z,2.70
2022-10-05T14:11:31.382Z,2.40
2022-10-05T14:16:35.649Z,2.50
2022-10-05T14:21:53.757Z,2.33
2022-10-05T14:26:58.306Z,2.50
2022-10-05T14:32:14.099Z,2.57
2022-10-05T14:37:21.568Z,2.50
2022-10-05T14:42:44.945Z,3.00
2022-10-05T14:48:10.475Z,2.70
2022-10-05T14:53:16.873Z,2.67
2022-10-05T14:58:38.422Z,2.60
2022-10-05T15:03:53.728Z,2.90
2022-10-05T15:08:56.537Z,2.80
2022-10-05T15:14:00.551Z,2.70
2022-10-05T15:19:22.681Z,2.90
2022-10-05T15:24:32.049Z,2.80
2022-10-05T15:29:42.130Z,3.00
2022-10-05T15:35:18.434Z,2.80
2022-10-05T15:40:51.688Z,2.73
2022-10-05T15:46:06.538Z,3.00
2022-10-05T15:51:21.621Z,3.17
2022-10-05T15:56:33.188Z,2.97
2022-10-05T16:01:36.062Z,3.53
2022-10-05T16:07:20.053Z,3.50
2022-10-05T16:12:44.031Z,3.87
2022-10-05T16:18:14.274Z,3.63
2022-10-05T16:23:25.862Z,3.90
2022-10-05T16:28:47.586Z,4.83
2022-10-05T16:34:17.336Z,4.50
2022-10-05T16:39:45.845Z,4.80
2022-10-05T16:45:19.091Z,4.27
2022-10-05T16:50:37.143Z,4.60
2022-10-05T16:55:48.315Z,5.10
2022-10-05T17:01:30.102Z,4.77
2022-10-05T17:06:48.112Z,5.83
2022-10-05T17:12:03.011Z,5.70
2022-10-05T17:17:36.845Z,4.90
2022-10-05T17:23:21.619Z,5.47
2022-10-05T17:28:57.634Z,5.43
2022-10-05T17:34:00.346Z,5.50
2022-10-05T17:39:23.702Z,5.67
2022-10-05T17:44:26.655Z,5.17
2022-10-05T17:49:38.234Z,5.73
2022-10-05T17:55:05.391Z,5.10
2022-10-05T18:00:56.068Z,5.00
2022-10-05T18:06:33.365Z,4.90
2022-10-05T18:11:42.979Z,5.10
2022-10-05T18:17:10.367Z,5.07
2022-10-05T18:22:16.118Z,5.27
2022-10-05T18:27:51.061Z,5.00
2022-10-05T18:33:03.650Z,4.60
2022-10-05T18:38:25.386Z,4.80
2022-10-05T18:43:31.105Z,5.23
2022-10-05T18:49:04.664Z,4.83
2022-10-05T18:54:28.879Z,4.90
2022-10-05T18:59:41.063Z,4.33
2022-10-05T19:05:23.649Z,4.37
2022-10-05T19:10:56.681Z,4.97
2022-10-05T19:16:27.195Z,4.63
2022-10-05T19:21:45.048Z,4.30
2022-10-05T19:27:03.178Z,4.30
2022-10-05T19:32:16.718Z,4.30
2022-10-05T19:37:38.299Z,4.70
2022-10-05T19:42:48.185Z,4.53
2022-10-05T19:48:28.577Z,4.40
2022-10-05T19:53:37.456Z,4.00
2022-10-05T19:58:40.656Z,4.17
2022-10-05T20:03:48.806Z,4.17
2022-10-05T20:08:54.562Z,4.33
2022-10-05T20:14:01.204Z,4.20
2022-10-05T20:19:50.781Z,4.17
2022-10-05T20:25:00.229Z,4.13
2022-10-05T20:30:03.806Z,3.90
2022-10-05T20:35:07.095Z,3.67
2022-10-05T20:40:10.562Z,3.80
2022-10-05T20:45:14.237Z,3.90
2022-10-05T20:50:17.502Z,3.80
2022-10-05T20:55:20.876Z,3.97
2022-10-05T21:00:23.718Z,3.67
2022-10-05T21:05:26.492Z,4.00
2022-10-05T21:10:29.241Z,3.80
2022-10-05T21:15:32.636Z,4.03
2022-10-05T21:20:35.332Z,4.10
2022-10-05T21:25:38.115Z,4.07
2022-10-05T21:30:40.911Z,4.47
2022-10-05T21:35:43.664Z,3.80
2022-10-05T21:40:46.605Z,4.10
2022-10-05T21:45:49.460Z,3.63
2022-10-05T21:50:52.178Z,4.30
2022-10-05T21:55:55.721Z,4.00
2022-10-05T22:00:59.714Z,3.83
2022-10-05T22:06:03.901Z,4.30
2022-10-05T22:11:12.888Z,4.40
2022-10-05T22:16:17.424Z,4.17
2022-10-05T22:21:21.293Z,4.07
2022-10-05T22:26:24.717Z,4.40
2022-10-05T22:31:27.885Z,4.50
2022-10-05T22:36:30.680Z,4.20
2022-10-05T22:41:33.474Z,4.40
2022-10-05T22:46:36.556Z,5.67
2022-10-05T22:51:39.271Z,4.33
2022-10-05T22:56:41.985Z,4.23
2022-10-05T23:01:44.780Z,4.33
2022-10-05T23:06:47.994Z,4.07
2022-10-05T23:11:54.340Z,4.37
2022-10-05T23:16:57.153Z,3.80
2022-10-05T23:21:59.896Z,4.07
2022-10-05T23:27:02.603Z,4.07
2022-10-05T23:32:05.494Z,3.70
2022-10-05T23:37:08.276Z,3.90
2022-10-05T23:42:10.961Z,3.93
2022-10-05T23:47:13.672Z,3.53
2022-10-05T23:52:16.413Z,3.67
2022-10-05T23:57:19.916Z,3.70
